UDYZUGTB

Guest
Details From UDYZ - Zvartnots
To UGTB - Tbilisi
Flight Number -
Tags Decoded
Created
Modified
Stats Distance 95 nm / 177 km
Max Altitude 0 ft / 0 m
Waypoints 2
Social Downloads 2
Likes 0
Share VATSIM

Download

Looking for another format? Having issues loading an existing format? Contact us
Advertisement - Login to hide

Notes

Decoded

Route

UDYZ UGTB

ID Type Via Altitude Latitude Longitude Leg Dist Tot Dist Heading (true) Name
O UDYZ APT - 0 ft / 0 m 40.14715˚ 44.37329˚ - 0 nm - -
O UGTB APT - 0 ft / 0 m 41.67691˚ 44.94389˚ 95 nm 95 nm 16° / 16° -

Altitude Profile

Advertisement - Login to hide

UDYZ

Details ICAO UDYZ (EVN)
Name ZVARTNOTS
Region Armenia
Timezone Asia/Yerevan (UTC+4.0)
Stats Elevation 2,838 ft / 865 m (AMSL)
Location 40.147271° 44.395880°
Runways 1
Magnetic Variation 6.201° E

METAR

UDYZ 171330Z 00000KT 3500 BR NSC 04/M02 Q1024 R09/000070 NOSIG

Decode

TAF

TAF UDYZ 170535Z 1706/1806 VRB04KT 3500 BR NSC TEMPO 1706/1708 0800 FZFG VV003

Decode

Departure Runways

ID Width Length Bearing (true) Bearing (mag) Surface Threshold Offset Overrun Length
09 184 ft / 56 m 12,601 ft / 3,841 m 89.59° 83.39° Asphalt 0 ft / 0 m 0 ft / 0 m
27 184 ft / 56 m 12,601 ft / 3,841 m 269.62° 263.42° Asphalt 0 ft / 0 m 0 ft / 0 m

UGTB

Details ICAO UGTB (TBS)
Name TBILISI
Region Georgia
Timezone Asia/Tbilisi (UTC+4.0)
Stats Elevation 1,624 ft / 495 m (AMSL)
Location 41.668582° 44.953644°
Runways 2
Magnetic Variation 6.648° E

METAR

UGTB 171330Z 12004KT 7000 NSC 06/01 Q1024 R31L/CLRD70 NOSIG

Decode

TAF

Not found

Destination Runways

ID Width Length Bearing (true) Bearing (mag) Surface Threshold Offset Overrun Length
13L 196 ft / 60 m 8,208 ft / 2,502 m 133.64° 126.99° Asphalt 0 ft / 0 m 0 ft / 0 m
13R 147 ft / 45 m 9,839 ft / 2,999 m 136.65° 130.00° Concrete 0 ft / 0 m 155 ft / 47 m
31L 147 ft / 45 m 9,839 ft / 2,999 m 316.67° 310.02° Concrete 0 ft / 0 m 150 ft / 46 m
31R 196 ft / 60 m 8,208 ft / 2,502 m 313.65° 307.00° Asphalt 0 ft / 0 m 0 ft / 0 m

Approach Navaids

Runway Type Ident Frequency Range Bearing (true) Bearing (mag) Slope Elevation
13R Localiser IVP 110.30 MHz 18 nm / 33 km 136.69° 130.04° - 1,624 ft / 495 m (AMSL)
13R Glidescope IVP 110.30 MHz 10 nm / 19 km 136.66° 130.01° 3.00° 1,657 ft / 505 m (AMSL)
31L Localiser INA 108.90 MHz 18 nm / 33 km 316.65° 310.00° - 1,624 ft / 495 m (AMSL)
31L Glidescope INA 108.90 MHz 10 nm / 19 km 316.66° 310.01° 3.00° 1,624 ft / 495 m (AMSL)

Popular Alternatives